Flight Track Log - Related Links

Times and Time Zones

All times are in EDT time to prevent confusion due to time zone crossing. See the SKW6440 flight status page for this flight to view local times or setup timezone preferences in your user account.

Time Position Orientation Groundspeed Altitude Reporting Facility
EDT Latitude Longitude Course Direction KTS MPH feet Rate Location/Type
Tue 07:26:09 PM 33.9311 -118.4450 55° Northeast 170 196 1,400  Level Los Angeles Center
Tue 07:27:11 PM 33.9119 -118.5272 254° West 236 272 3,800 2,419 Climbing Los Angeles Center
Tue 07:28:00 PM 34.1326 -118.0680 59° Northeast  Level FlightAware Approximate
Tue 07:28:13 PM 33.8872 -118.6067 249° West 254 292 6,400  Level Los Angeles Center
Tue 07:29:00 PM 34.2020 -117.9294 59° Northeast  Level FlightAware Approximate
Tue 07:29:15 PM 33.8267 -118.6419 206° Southwest 261 300 8,900  Level Los Angeles Center
Tue 07:30:00 PM 34.2761 -117.8072 40° Northeast  Level FlightAware Approximate
Tue 07:30:17 PM 33.8264 -118.5614 90° East 289 333 10,400  Level Los Angeles Center
Tue 07:31:00 PM 34.3464 -117.6729 55° Northeast  Level FlightAware Approximate
Tue 07:31:19 PM 33.8906 -118.4875 44° Northeast 311 358 12,800  Level Los Angeles Center
Tue 07:32:21 PM 33.9531 -118.4028 48° Northeast 334 384 14,300 1,680 Climbing Los Angeles Center
Tue 07:33:24 PM 34.0092 -118.3011 56° Northeast 358 412 16,300 1,824 Climbing Los Angeles Center
Tue 07:34:26 PM 34.0678 -118.1975 56° Northeast 369 425 18,100 1,403 Climbing Los Angeles Center
Tue 07:35:28 PM 34.1283 -118.0883 56° Northeast 387 445 19,200 1,113 Climbing Los Angeles Center
Tue 07:36:30 PM 34.2083 -117.9483 55° Northeast 419 482 20,400 1,210 Climbing Los Angeles Center
Tue 07:37:32 PM 34.2778 -117.8239 56° Northeast 441 507 21,700 1,355 Climbing Los Angeles Center
Tue 07:38:34 PM 34.3469 -117.6997 56° Northeast 446 513 23,200 1,500 Climbing Los Angeles Center
Tue 07:39:36 PM 34.4211 -117.5706 55° Northeast 443 510 24,800 1,500 Climbing Los Angeles Center
Tue 07:40:38 PM 34.5008 -117.4597 49° Northeast 441 507 26,300 1,452 Climbing Los Angeles Center
Tue 07:41:40 PM 34.5783 -117.3481 50° Northeast 437 503 27,800 1,452 Climbing Los Angeles Center
Tue 07:42:42 PM 34.6567 -117.2372 49° Northeast 436 502 29,300 1,452 Climbing Los Angeles Center
Tue 07:43:44 PM 34.7336 -117.1283 49° Northeast 429 494 30,800 1,597 Climbing Los Angeles Center
Tue 07:44:46 PM 34.8242 -116.9978 50° Northeast 424 488 32,600 1,452 Climbing Los Angeles Center
Tue 07:45:48 PM 34.8981 -116.8925 49° Northeast 413 475 33,800 919 Climbing Los Angeles Center
Tue 07:46:50 PM 34.9714 -116.7856 50° Northeast 413 475 34,500 677 Climbing Los Angeles Center
Tue 07:47:52 PM 35.0483 -116.6769 49° Northeast 421 484 35,200 677 Climbing Los Angeles Center
Tue 07:48:54 PM 35.1247 -116.5669 50° Northeast 426 490 35,900 618 Climbing Los Angeles Center
Tue 07:50:08 PM 35.2164 -116.4344 50° Northeast 427 491 36,600 569 Climbing Los Angeles Center
Tue 07:51:11 PM 35.3081 -116.2994 50° Northeast 430 495 37,200 528 Climbing Los Angeles Center
Tue 07:52:13 PM 35.3850 -116.1875 50° Northeast 432 497 37,700 484 Climbing Los Angeles Center
Tue 07:53:15 PM 35.4608 -116.0744 51° Northeast 431 496 38,200 484 Climbing Los Angeles Center
Tue 07:54:17 PM 35.5389 -115.9628 49° Northeast 432 497 38,700 339 Climbing Los Angeles Center
Tue 07:55:19 PM 35.6192 -115.8447 50° Northeast 429 494 38,900 145 Climbing Los Angeles Center
Tue 07:56:21 PM 35.7106 -115.7094 50° Northeast 429 494 39,000 48 Climbing Los Angeles Center
Tue 07:57:23 PM 35.7892 -115.5936 50° Northeast 440 506 39,000  Level Los Angeles Center
Tue 07:58:25 PM 35.8683 -115.4756 50° Northeast 447 514 39,000  Level Los Angeles Center
Tue 07:59:28 PM 35.9481 -115.3561 50° Northeast 454 522 39,000  Level Los Angeles Center
Tue 08:00:29 PM 36.0283 -115.2372 50° Northeast 454 522 39,000  Level Los Angeles Center
Tue 08:01:31 PM 36.0969 -115.0622 64° Northeast 481 554 39,000  Level Los Angeles Center
Tue 08:02:33 PM 36.1244 -114.8961 78° East 493 567 39,000  Level Los Angeles Center
Tue 08:03:35 PM 36.1539 -114.7303 78° East 495 570 39,000  Level Los Angeles Center
Tue 08:04:37 PM 36.1836 -114.5628 78° East 499 574 39,000  Level Los Angeles Center
Tue 08:05:39 PM 36.2119 -114.3958 78° East 497 572 39,000  Level Los Angeles Center
Tue 08:06:41 PM 36.2397 -114.2267 78° East 502 578 39,000  Level Los Angeles Center
Tue 08:07:43 PM 36.2747 -114.0244 78° East 502 578 39,000  Level Los Angeles Center
Tue 08:08:45 PM 36.3031 -113.8533 78° East 507 583 39,000  Level Los Angeles Center
Tue 08:09:47 PM 36.3311 -113.6828 78° East 506 582 39,000  Level Los Angeles Center
Tue 08:10:51 PM 36.3597 -113.5117 78° East 507 583 39,000  Level Los Angeles Center
Tue 08:11:52 PM 36.3875 -113.3406 79° East 507 583 39,000  Level Los Angeles Center
Tue 08:12:54 PM 36.4186 -113.1519 78° East 509 586 39,000  Level Los Angeles Center
Tue 08:13:56 PM 36.4450 -112.9800 79° East 509 586 39,000  Level Los Angeles Center
Tue 08:14:58 PM 36.4728 -112.8072 79° East 512 589 39,000  Level Los Angeles Center
Tue 08:16:00 PM 36.5033 -112.6011 79° East 510 587 39,000  Level Los Angeles Center
Tue 08:17:02 PM 36.5306 -112.4278 79° East 512 589 39,000  Level Los Angeles Center
Tue 08:18:04 PM 36.5564 -112.2547 79° East 512 589 39,000  Level Los Angeles Center
Tue 08:19:06 PM 36.5828 -112.0817 79° East 512 589 39,000  Level Los Angeles Center
Tue 08:20:10 PM 36.6103 -111.9078 79° East 513 590 39,000  Level Los Angeles Center
Tue 08:20:53 PM 36.6308 -111.7681 80° East 515 593 39,000  Level Denver Center
Tue 08:21:55 PM 36.6542 -111.5953 80° East 512 589 39,000  Level Denver Center
Tue 08:22:57 PM 36.6822 -111.4181 79° East 519 597 39,000  Level Denver Center
Tue 08:23:59 PM 36.7267 -111.2169 75° East 505 581 39,000  Level Denver Center
Tue 08:25:01 PM 36.7742 -111.0514 70° East 507 583 39,000  Level Denver Center
Tue 08:26:03 PM 36.8172 -110.8875 72° East 501 577 39,000  Level Denver Center
Tue 08:27:05 PM 36.8619 -110.7228 71° East 503 579 39,000  Level Denver Center
Tue 08:28:07 PM 36.9069 -110.5561 71° East 509 586 39,000  Level Denver Center
Tue 08:29:09 PM 36.9503 -110.3883 72° East 510 587 39,000  Level Denver Center
Tue 08:30:10 PM 37.0042 -110.1875 71° East 509 586 39,000  Level Denver Center
Tue 08:31:12 PM 37.0506 -110.0125 72° East 512 589 39,000  Level Denver Center
Tue 08:32:14 PM 37.0922 -109.8497 72° East 513 590 39,000  Level Denver Center
Tue 08:33:16 PM 37.1361 -109.6828 72° East 519 597 39,000  Level Denver Center
Tue 08:34:18 PM 37.1853 -109.4922 72° East 516 594 39,000  Level Denver Center
Tue 08:35:20 PM 37.2267 -109.3289 72° East 513 590 39,000  Level Denver Center
Tue 08:36:22 PM 37.2758 -109.1344 72° East 520 598 39,000  Level Denver Center
Tue 08:37:25 PM 37.3181 -108.9686 72° East 520 598 39,000  Level Denver Center
Tue 08:38:26 PM 37.3672 -108.7733 72° East 522 601 39,000  Level Denver Center
Tue 08:39:27 PM 37.4083 -108.6047 73° East 525 604 39,000  Level Denver Center
Tue 08:40:29 PM 37.4497 -108.4361 73° East 526 605 39,000  Level Denver Center
Tue 08:41:31 PM 37.4983 -108.2397 73° East 527 606 39,000  Level Denver Center
Tue 08:42:33 PM 37.5397 -108.0694 73° East 528 608 39,000  Level Denver Center
Tue 08:43:35 PM 37.5869 -107.8697 73° East 532 612 39,000  Level Denver Center
Tue 08:44:36 PM 37.6283 -107.7000 73° East 528 608 39,000 -98 Level Denver Center
Tue 08:45:38 PM 37.6767 -107.4992 73° East 534 615 38,800 -581 Descending Denver Center
Tue 08:46:40 PM 37.7156 -107.3292 74° East 528 608 37,800 -927 Descending Denver Center
Tue 08:47:41 PM 37.7553 -107.1603 73° East 525 604 36,900 -1,122 Descending Denver Center
Tue 08:48:43 PM 37.7994 -106.9656 74° East 518 596 35,500 -1,742 Descending Denver Center
Tue 08:49:45 PM 37.8436 -106.7806 73° East 517 595 33,300 -2,000 Descending Denver Center
Tue 08:50:46 PM 37.8786 -106.6211 74° East 494 568 31,400 -1,756 Descending Denver Center
Tue 08:51:48 PM 37.9100 -106.4847 74° East 483 556 29,700 -2,081 Descending Denver Center
Tue 08:52:50 PM 37.9567 -106.2794 74° East 475 547 27,100 -1,951 Descending Denver Center
Tue 08:53:51 PM 37.9897 -106.1286 74° East 468 539 25,700 -1,415 Descending Denver Center
Tue 08:54:53 PM 38.0242 -105.9781 74° East 464 534 24,200 -1,368 Descending Denver Center
Tue 08:56:07 PM 38.0611 -105.8078 75° East 452 520 22,600 -1,588 Descending Denver Center
Tue 08:57:09 PM 38.1042 -105.6153 74° East 444 511 20,600 -1,561 Descending Denver Center
Tue 08:58:10 PM 38.1289 -105.4986 75° East 436 502 19,400 -1,171 Descending Denver Center
Tue 08:59:12 PM 38.1661 -105.3331 74° East 435 501 18,200 -1,024 Descending Denver Center
Tue 09:00:13 PM 38.2003 -105.1711 75° East 430 495 17,300 -927 Descending Denver Center
Tue 09:01:15 PM 38.2286 -105.0339 75° East 423 487 16,300 -1,024 Descending Denver Center
Tue 09:02:16 PM 38.2617 -104.8764 75° East 415 478 15,200 -1,024 Descending Denver Center
Tue 09:03:18 PM 38.2894 -104.7464 75° East 402 463 14,200 -585 Descending Denver Center
Tue 09:04:19 PM 38.3494 -104.6539 50° Northeast 390 449 14,000 -98 Descending Denver Center
Tue 09:05:21 PM 38.4600 -104.6419 North 360 414 14,000  Level Denver Center
Tue 09:06:22 PM 38.5556 -104.6322 North 358 412 14,000  Level Denver Center
Tue 09:07:24 PM 38.6700 -104.6094 North 367 422 14,000 -726 Level Denver Center
Tue 09:08:26 PM 38.7611 -104.5897 10° North 350 403 12,500 -1,415 Descending Denver Center
Tue 09:09:27 PM 38.8403 -104.5744 North 309 356 11,100 -1,512 Descending Denver Center
Tue 09:10:29 PM 38.9261 -104.5753 360° North 276 318 9,400 -1,024 Descending Denver Center
Tue 09:11:30 PM 39.0003 -104.5781 358° North 265 305 9,000 -195 Descending Denver Center
Tue 09:12:32 PM 39.0606 -104.6122 336° Northwest 252 290 9,000  Level Denver Center
Tue 09:13:33 PM 39.0331 -104.6753 241° Southwest 216 249 9,000  Level Denver Center
Tue 09:14:35 PM 38.9811 -104.6864 189° South 195 224 9,000 -49 Level Denver Center
Tue 09:15:36 PM 38.9414 -104.6831 176° South 178 205 8,900 -98 Descending Denver Center

Login

Don't have an account? Register now (free) for customized features, flight alerts, and more!